ADDS METAR Data INFO
IDs: Format: Raw Decoded Include TAF

Data at: 1602 UTC 12 Dec 2017

KAGS 121553Z 29015G20KT 10SM CLR 13/03 A2981 RMK AO2 SLP094 T01330033
KAGS 121453Z 27006KT 10SM CLR 10/04 A2981 RMK AO2 SLP095 T01000039 56007
KAGS 121353Z 26009KT 10SM CLR 09/03 A2981 RMK AO2 SLP096 T00890033
KAGS 121253Z 23008KT 10SM CLR 07/03 A2983 RMK AO2 SLP100 T00720028
KAGS 121153Z 24009KT 10SM CLR 07/03 A2983 RMK AO2 SLP102 T00720028 10083 20056 56018
KAGS 121053Z AUTO 24007KT 10SM CLR 08/03 A2984 RMK AO2 SLP106 T00780028
KAGS 120953Z AUTO 23009KT 10SM CLR 08/02 A2986 RMK AO2 SLP109 T00780022
KAGS 120853Z AUTO 24004KT 10SM CLR 07/02 A2989 RMK AO2 SLP120 T00670017 58020
KAGS 120753Z AUTO 22007KT 10SM CLR 07/02 A2991 RMK AO2 SLP127 T00720022
KAGS 120653Z AUTO 25006KT 10SM CLR 08/02 A2994 RMK AO2 SLP136 T00780022
KAGS 120553Z AUTO 23007KT 10SM CLR 08/02 A2995 RMK AO2 SLP140 T00780022 10089 20039 58019
KAGS 120453Z 22006KT 10SM CLR 05/02 A2998 RMK AO2 SLP151 T00500017 401721033
KAGS 120353Z 21005KT 10SM CLR 07/02 A3000 RMK AO2 SLP158 T00720022
KAGS 120253Z 22005KT 10SM CLR 08/02 A3001 RMK AO2 SLP160 T00780017 58011
KAGS 120153Z 20005KT 10SM CLR 07/02 A3001 RMK AO2 SLP164 T00670017
KAGS 120053Z 00000KT 10SM CLR 06/02 A3003 RMK AO2 SLP170 T00560022
KAGS 112353Z 00000KT 10SM CLR 07/03 A3004 RMK AO2 SLP171 T00720028 10172 20072 58001
KAGS 112253Z 19003KT 10SM CLR 11/01 A3004 RMK AO2 SLP173 T01110006
KAGS 112153Z 23009KT 10SM CLR 15/01 A3004 RMK AO2 SLP173 T01500006
KAGS 112053Z 24007KT 10SM CLR 16/00 A3004 RMK AO2 SLP172 T01610000 56024
KAGS 111953Z 22007KT 10SM CLR 17/00 A3005 RMK AO2 SLP177 T01670000
KAGS 111853Z 25008KT 10SM CLR 16/M01 A3007 RMK AO2 SLP184 T01611011
KAGS 111753Z 29004KT 10SM CLR 14/M01 A3011 RMK AO2 SLP197 T01391011 10144 21011 58030
KAGS 111653Z 00000KT 10SM CLR 13/M01 A3016 RMK AO2 SLP212 T01281006
KAGS 111553Z 00000KT 10SM CLR 11/00 A3019 RMK AO2 SLP225 T01060000
KAGS 111453Z 29005KT 10SM CLR 08/M01 A3020 RMK AO2 SLP227 T00781006 51002
KAGS 111353Z 26003KT 10SM CLR 03/M01 A3020 RMK AO2 SLP227 T00331006
KAGS 111253Z 00000KT 10SM CLR M01/M03 A3020 RMK AO2 SLP228 T10111028
KAGS 111153Z 25004KT 10SM CLR 01/M03 A3019 RMK AO2 SLP225 T00061028 10022 21033 53001
KAGS 111053Z AUTO 00000KT 10SM CLR 01/M03 A3018 RMK AO2 SLP221 T00111028
KAGS 110953Z AUTO 27004KT 10SM CLR 01/M03 A3019 RMK AO2 SLP221 T00111028
KAGS 110853Z AUTO 00000KT 10SM CLR 02/M03 A3019 RMK AO2 SLP223 T00171028 56016
KAGS 110753Z AUTO 00000KT 10SM CLR M01/M04 A3020 RMK AO2 SLP227 T10061039
KAGS 110653Z AUTO 22003KT 10SM CLR M01/M04 A3022 RMK AO2 SLP234 T10111039
KAGS 110553Z AUTO 22004KT 10SM CLR M02/M03 A3024 RMK AO2 SLP240 T10221033 10022 21022 50003
KAGS 110453Z 00000KT 10SM CLR M02/M03 A3025 RMK AO2 SLP245 T10171033 401061044